Time;durP1;ratioP1;P1;durP2;ratioP2;P2;SDS_P1;SDS_P2;PMS_P1;PMS_P2;Temp;Humidity;BMP_temperature;BMP_pressure;BME280_temperature;BME280_humidity;BME280_pressure;Samples;Min_cycle;Max_cycle;Signal;HPM_P1;HPM_P2
2022/10/28 00:01:59;;;;;;;14.80;8.87;;;14.20;99.90;;;;;;5113970;28;20074;-81
2022/10/28 00:04:24;;;;;;;13.83;7.83;;;14.10;99.90;;;;;;5114862;28;20031;-81
2022/10/28 00:06:50;;;;;;;17.08;8.57;;;14.10;99.90;;;;;;5114886;28;20505;-81
2022/10/28 00:09:15;;;;;;;13.30;8.38;;;14.00;99.90;;;;;;5114872;28;20043;-81
2022/10/28 00:11:41;;;;;;;15.73;8.17;;;14.00;99.90;;;;;;5114683;28;20044;-81
2022/10/28 00:14:08;;;;;;;16.45;8.35;;;14.10;99.90;;;;;;5114896;28;20114;-81
2022/10/28 00:16:36;;;;;;;17.30;8.52;;;13.90;99.90;;;;;;5114897;28;20485;-81
2022/10/28 00:19:03;;;;;;;14.18;8.85;;;13.90;99.90;;;;;;5114006;28;20046;-81
2022/10/28 00:21:32;;;;;;;16.02;8.40;;;13.90;99.90;;;;;;5114683;28;20084;-81
2022/10/28 00:23:58;;;;;;;16.20;8.10;;;13.90;99.90;;;;;;5114651;28;20042;-81
2022/10/28 00:26:29;;;;;;;14.33;8.10;;;13.80;99.90;;;;;;5114439;28;20494;-81
2022/10/28 00:28:57;;;;;;;15.15;8.38;;;13.80;99.90;;;;;;5114549;28;20047;-81
2022/10/28 00:31:25;;;;;;;17.25;8.57;;;13.70;99.90;;;;;;5114274;28;20039;-81
2022/10/28 00:33:51;;;;;;;13.43;8.30;;;13.70;99.90;;;;;;5114329;28;20372;-81
2022/10/28 00:36:22;;;;;;;21.13;9.68;;;13.70;99.90;;;;;;5114334;28;20047;-81
2022/10/28 00:38:50;;;;;;;15.45;9.18;;;13.70;99.90;;;;;;5113216;28;20111;-81
2022/10/28 00:41:18;;;;;;;16.13;8.98;;;13.70;99.90;;;;;;5114272;28;20043;-81
2022/10/28 00:43:48;;;;;;;16.63;8.77;;;13.70;99.90;;;;;;5114326;28;20380;-81
2022/10/28 00:46:34;;;;;;;16.13;9.23;;;13.90;99.90;;;;;;5114322;28;20044;-81
2022/10/28 00:49:27;;;;;;;17.27;9.60;;;13.70;99.90;;;;;;5106508;28;20108;-81
2022/10/28 00:51:58;;;;;;;14.57;9.25;;;13.80;99.90;;;;;;5112373;28;20112;-81
2022/10/28 00:54:24;;;;;;;18.10;9.20;;;13.80;99.90;;;;;;5113989;28;20487;-81
2022/10/28 00:56:54;;;;;;;16.00;10.05;;;13.90;99.90;;;;;;5113868;28;20425;-81
2022/10/28 00:59:31;;;;;;;17.23;9.27;;;13.90;99.90;;;;;;5114401;28;20035;-81
2022/10/28 01:01:57;;;;;;;17.90;10.00;;;13.90;99.90;;;;;;5114792;28;20036;-81
2022/10/28 01:04:22;;;;;;;22.90;8.93;;;14.10;99.90;;;;;;5117452;28;20479;-81
2022/10/28 01:06:49;;;;;;;14.53;8.43;;;14.10;99.90;;;;;;5134878;28;20081;-81
2022/10/28 01:09:15;;;;;;;17.70;9.07;;;13.90;99.90;;;;;;5135332;27;20050;-81
2022/10/28 01:11:55;;;;;;;17.63;9.27;;;14.00;99.90;;;;;;5134968;28;20461;-81
2022/10/28 01:14:43;;;;;;;15.25;9.48;;;14.00;99.90;;;;;;5134629;28;20039;-81
2022/10/28 01:17:30;;;;;;;18.67;9.48;;;14.00;99.90;;;;;;5134636;27;20035;-81
2022/10/28 01:20:15;;;;;;;14.68;8.93;;;14.00;99.90;;;;;;5133218;28;20143;-81
2022/10/28 01:23:10;;;;;;;23.05;9.10;;;14.00;99.90;;;;;;5134460;28;20043;-81
2022/10/28 01:26:03;;;;;;;21.23;9.52;;;14.00;99.90;;;;;;5134229;27;20483;-81
2022/10/28 01:28:54;;;;;;;17.60;8.90;;;14.10;99.90;;;;;;5134318;28;20058;-81
2022/10/28 01:31:44;;;;;;;17.27;9.40;;;14.10;99.90;;;;;;5137978;27;20078;-82
2022/10/28 01:34:24;;;;;;;22.17;9.60;;;14.10;99.90;;;;;;5138390;27;20356;-82
2022/10/28 01:36:56;;;;;;;17.15;9.50;;;14.10;99.90;;;;;;5138265;27;20415;-82
2022/10/28 01:39:42;;;;;;;14.68;8.93;;;14.10;99.90;;;;;;5138322;27;20039;-82
2022/10/28 01:42:28;;;;;;;19.80;9.15;;;14.10;99.90;;;;;;5138661;27;20043;-82
2022/10/28 01:44:59;;;;;;;18.75;9.50;;;14.10;99.90;;;;;;5138008;27;20103;-81
2022/10/28 01:47:30;;;;;;;19.25;9.52;;;14.10;99.90;;;;;;5137761;27;20060;-81
2022/10/28 01:50:09;;;;;;;18.00;9.18;;;14.10;99.90;;;;;;5137913;27;20043;-81
2022/10/28 01:52:38;;;;;;;21.95;10.45;;;14.10;99.90;;;;;;5137885;27;20040;-82
2022/10/28 01:55:14;;;;;;;15.50;9.63;;;14.10;99.90;;;;;;5137806;27;20042;-82
2022/10/28 01:57:42;;;;;;;20.42;9.52;;;14.10;99.90;;;;;;5137598;27;20511;-82
2022/10/28 02:00:08;;;;;;;14.10;9.75;;;14.00;99.90;;;;;;5137851;27;20043;-82
2022/10/28 02:02:37;;;;;;;15.52;9.50;;;14.00;99.90;;;;;;5137779;27;20079;-82
2022/10/28 02:05:06;;;;;;;17.80;10.90;;;14.00;99.90;;;;;;5136326;27;20051;-82
2022/10/28 02:07:31;;;;;;;17.77;9.77;;;14.00;99.90;;;;;;5137606;27;20479;-82
2022/10/28 02:10:15;;;;;;;21.33;10.37;;;13.90;99.90;;;;;;5137521;27;20040;-81
2022/10/28 02:12:43;;;;;;;20.42;10.30;;;14.00;99.90;;;;;;5137661;27;20031;-82
2022/10/28 02:15:45;;;;;;;23.23;10.35;;;13.90;99.90;;;;;;5137516;27;20382;-82
2022/10/28 02:18:37;;;;;;;20.88;10.57;;;13.90;99.90;;;;;;5137391;27;20534;-81
2022/10/28 02:21:12;;;;;;;18.92;9.73;;;13.90;99.90;;;;;;5137382;27;20075;-81
2022/10/28 02:23:51;;;;;;;16.83;9.95;;;13.90;99.90;;;;;;5137370;27;20076;-81
2022/10/28 02:26:26;;;;;;;20.80;10.00;;;13.90;99.90;;;;;;5136913;27;20055;-81
2022/10/28 02:29:19;;;;;;;18.08;10.25;;;13.90;99.90;;;;;;5137188;27;20498;-81
2022/10/28 02:31:54;;;;;;;18.45;10.55;;;13.80;99.90;;;;;;5137208;27;20118;-81
2022/10/28 02:34:25;;;;;;;17.63;10.00;;;13.90;99.90;;;;;;5136024;27;20035;-81
2022/10/28 02:36:54;;;;;;;18.67;10.20;;;13.80;99.90;;;;;;5137164;27;20096;-82
2022/10/28 02:39:25;;;;;;;18.83;10.30;;;13.80;99.90;;;;;;5135881;27;20049;-82
2022/10/28 02:41:52;;;;;;;21.55;10.38;;;13.80;99.90;;;;;;5134922;27;20035;-82
2022/10/28 02:44:22;;;;;;;24.73;11.00;;;13.80;99.90;;;;;;5136970;27;20062;-82
2022/10/28 02:46:50;;;;;;;18.48;10.38;;;13.80;99.90;;;;;;5136609;27;20496;-82
2022/10/28 02:49:16;;;;;;;17.60;9.60;;;13.70;99.90;;;;;;5136808;27;20043;-82
2022/10/28 02:51:54;;;;;;;16.10;10.23;;;13.70;99.90;;;;;;5136720;27;20080;-82
2022/10/28 02:54:28;;;;;;;15.02;10.43;;;13.70;99.90;;;;;;5136752;27;20427;-81
2022/10/28 02:56:59;;;;;;;15.13;9.93;;;13.70;99.90;;;;;;5136790;27;20035;-82
2022/10/28 02:59:25;;;;;;;18.30;10.23;;;13.70;99.90;;;;;;5135171;27;20043;-81
2022/10/28 03:01:51;;;;;;;20.47;10.53;;;13.70;99.90;;;;;;5136656;27;20551;-81
2022/10/28 03:04:16;;;;;;;18.20;10.50;;;13.60;99.90;;;;;;5136559;27;20421;-81
2022/10/28 03:06:42;;;;;;;18.10;9.40;;;13.60;99.90;;;;;;5136485;27;20031;-83
2022/10/28 03:09:07;;;;;;;13.57;9.45;;;13.60;99.90;;;;;;5135238;27;20164;-82
2022/10/28 03:11:33;;;;;;;18.90;10.17;;;13.50;99.90;;;;;;5136196;27;20422;-81
2022/10/28 03:13:59;;;;;;;17.80;9.87;;;13.50;99.90;;;;;;5136391;27;20043;-82
2022/10/28 03:16:25;;;;;;;18.65;9.88;;;13.50;99.90;;;;;;5136442;27;20045;-82
2022/10/28 03:18:51;;;;;;;18.42;10.23;;;13.40;99.90;;;;;;5136283;27;20372;-82
2022/10/28 03:21:17;;;;;;;25.70;10.03;;;13.40;99.90;;;;;;5136253;27;20420;-82
2022/10/28 03:23:42;;;;;;;22.07;9.77;;;13.40;99.90;;;;;;5136288;27;20047;-82
2022/10/28 03:26:08;;;;;;;22.33;10.27;;;13.30;99.90;;;;;;5135739;27;20042;-82
2022/10/28 03:28:34;;;;;;;13.40;9.35;;;13.20;99.90;;;;;;5136126;27;20054;-82
2022/10/28 03:30:59;;;;;;;14.93;9.70;;;13.20;99.90;;;;;;5134743;27;20039;-82
2022/10/28 03:33:25;;;;;;;19.30;10.03;;;13.20;99.90;;;;;;5134368;27;20394;-82
2022/10/28 03:35:51;;;;;;;20.73;10.52;;;13.10;99.90;;;;;;5135940;27;20031;-82
2022/10/28 03:38:16;;;;;;;21.50;10.10;;;13.10;99.90;;;;;;5134668;27;20470;-82
2022/10/28 03:40:42;;;;;;;18.03;9.50;;;13.10;99.90;;;;;;5135835;27;20510;-82
2022/10/28 03:43:07;;;;;;;17.17;9.65;;;13.00;99.90;;;;;;5135706;27;20394;-82
2022/10/28 03:45:33;;;;;;;18.77;9.73;;;13.20;99.90;;;;;;5135719;27;20041;-81
2022/10/28 03:47:59;;;;;;;18.50;10.18;;;13.00;99.90;;;;;;5135680;27;20035;-82
2022/10/28 03:50:24;;;;;;;22.43;9.47;;;13.00;99.90;;;;;;5135271;27;20039;-82
2022/10/28 03:52:50;;;;;;;18.40;10.38;;;13.00;99.90;;;;;;5135065;27;20035;-82
2022/10/28 03:55:16;;;;;;;14.33;9.47;;;13.00;99.90;;;;;;5134907;27;20031;-81
2022/10/28 03:57:42;;;;;;;19.83;10.35;;;13.00;99.90;;;;;;5134270;27;20061;-85
2022/10/28 04:00:08;;;;;;;23.52;10.35;;;13.00;99.90;;;;;;5135364;27;20534;-80
2022/10/28 04:02:34;;;;;;;19.00;11.13;;;13.00;99.90;;;;;;5135369;27;20043;-83
2022/10/28 04:04:59;;;;;;;17.73;10.18;;;13.00;99.90;;;;;;5134388;27;20126;-84
2022/10/28 04:07:25;;;;;;;20.42;10.05;;;12.90;99.90;;;;;;5135515;27;20066;-82
2022/10/28 04:09:50;;;;;;;23.42;11.05;;;12.90;99.90;;;;;;5135178;27;20046;-81
2022/10/28 04:12:19;;;;;;;21.17;10.10;;;12.90;99.90;;;;;;5135265;27;20037;-81
2022/10/28 04:14:45;;;;;;;19.60;10.40;;;12.90;99.90;;;;;;5135324;27;20031;-78
2022/10/28 04:17:10;;;;;;;22.00;10.83;;;12.90;99.90;;;;;;5135359;27;20103;-77
2022/10/28 04:19:36;;;;;;;19.00;10.93;;;12.90;99.90;;;;;;5135448;27;20474;-78
2022/10/28 04:22:01;;;;;;;21.58;10.75;;;12.90;99.90;;;;;;5135124;27;20046;-79
2022/10/28 04:24:27;;;;;;;22.20;11.50;;;12.90;99.90;;;;;;5135102;27;20046;-79
2022/10/28 04:26:53;;;;;;;19.30;9.85;;;12.90;99.90;;;;;;5135040;27;20055;-78
2022/10/28 04:29:18;;;;;;;23.80;11.85;;;12.90;99.90;;;;;;5135246;27;20118;-77
2022/10/28 04:31:44;;;;;;;18.35;10.73;;;13.00;99.90;;;;;;5133404;27;20061;-79
2022/10/28 04:34:09;;;;;;;20.25;10.80;;;12.90;99.90;;;;;;5134913;27;20035;-78
2022/10/28 04:36:35;;;;;;;21.50;9.95;;;13.00;99.90;;;;;;5134965;27;20633;-79
2022/10/28 04:39:01;;;;;;;21.08;10.23;;;13.10;99.90;;;;;;5134919;27;20062;-79
2022/10/28 04:41:26;;;;;;;19.05;10.23;;;12.90;99.90;;;;;;5134681;27;20042;-78
2022/10/28 04:43:54;;;;;;;25.57;10.60;;;12.90;99.90;;;;;;5134835;27;20092;-80
2022/10/28 04:46:21;;;;;;;18.88;10.75;;;12.90;99.90;;;;;;5134796;27;20086;-77
2022/10/28 04:48:47;;;;;;;17.35;10.48;;;12.90;99.90;;;;;;5134686;27;20088;-78
2022/10/28 04:51:13;;;;;;;21.03;10.57;;;12.90;99.90;;;;;;5134705;27;20042;-77
2022/10/28 04:53:38;;;;;;;21.90;10.77;;;12.80;99.90;;;;;;5134669;27;20070;-77
2022/10/28 04:56:04;;;;;;;20.60;10.35;;;12.80;99.90;;;;;;5134733;27;20096;-77
2022/10/28 04:58:30;;;;;;;22.10;10.95;;;12.80;99.90;;;;;;5134756;27;20031;-79
2022/10/28 05:00:55;;;;;;;25.33;10.40;;;12.80;99.90;;;;;;5145517;27;20070;-78
2022/10/28 05:03:21;;;;;;;17.30;10.50;;;12.80;99.90;;;;;;5143234;27;20091;-78
2022/10/28 05:05:47;;;;;;;21.23;11.47;;;12.80;99.90;;;;;;5146744;27;20035;-78
2022/10/28 05:08:13;;;;;;;27.40;10.68;;;12.80;99.90;;;;;;5146633;27;20039;-79
2022/10/28 05:10:38;;;;;;;15.07;10.50;;;12.80;99.90;;;;;;5146071;27;20371;-79
2022/10/28 05:13:04;;;;;;;19.25;10.55;;;12.80;99.90;;;;;;5140930;27;20035;-79
2022/10/28 05:15:30;;;;;;;16.40;9.95;;;12.70;99.90;;;;;;5138932;27;20092;-78
2022/10/28 05:17:56;;;;;;;26.10;10.83;;;12.70;99.90;;;;;;5138619;27;20031;-78
2022/10/28 05:20:22;;;;;;;24.40;9.83;;;12.70;99.90;;;;;;5138576;27;20495;-78
2022/10/28 05:22:53;;;;;;;15.27;10.15;;;12.60;99.90;;;;;;5138554;27;20410;-79
2022/10/28 05:25:20;;;;;;;21.58;11.07;;;12.60;99.90;;;;;;5138393;27;20075;-79
2022/10/28 05:27:45;;;;;;;;;;;12.60;99.90;;;;;;5138441;27;20055;-79
2022/10/28 05:30:12;;;;;;;18.40;10.07;;;12.60;99.90;;;;;;5137576;27;19944;-78
2022/10/28 05:32:38;;;;;;;17.65;10.50;;;12.60;99.90;;;;;;5137064;27;20115;-78
2022/10/28 05:35:04;;;;;;;17.77;9.68;;;12.50;99.90;;;;;;5137852;27;20497;-79
2022/10/28 05:37:30;;;;;;;18.48;10.73;;;12.50;99.90;;;;;;5138110;27;20035;-79
2022/10/28 05:39:56;;;;;;;29.47;10.10;;;12.50;99.90;;;;;;5137567;27;20035;-79
2022/10/28 05:42:21;;;;;;;22.70;10.05;;;12.40;99.90;;;;;;5137799;27;20031;-79
2022/10/28 05:44:47;;;;;;;19.20;11.00;;;12.40;99.90;;;;;;5136556;27;20577;-78
2022/10/28 05:47:12;;;;;;;22.02;9.88;;;12.30;99.90;;;;;;5137656;27;20083;-78
2022/10/28 05:49:38;;;;;;;21.02;9.90;;;12.30;99.90;;;;;;5137546;27;20031;-78
2022/10/28 05:52:03;;;;;;;16.88;10.05;;;12.30;99.90;;;;;;5137434;27;20047;-78
2022/10/28 05:54:29;;;;;;;20.45;10.88;;;12.30;99.90;;;;;;5137456;27;20046;-78
2022/10/28 05:56:54;;;;;;;18.35;10.95;;;12.30;99.90;;;;;;5137557;27;20046;-78
2022/10/28 05:59:20;;;;;;;16.92;10.10;;;12.30;99.90;;;;;;5136318;27;20039;-77
2022/10/28 06:01:46;;;;;;;20.85;10.60;;;12.20;99.90;;;;;;5137449;27;20078;-77
2022/10/28 06:04:11;;;;;;;18.77;10.13;;;12.20;99.90;;;;;;5137220;27;20039;-79
2022/10/28 06:06:37;;;;;;;19.13;10.52;;;12.20;99.90;;;;;;5137434;27;20151;-79
2022/10/28 06:09:03;;;;;;;23.43;11.10;;;12.20;99.90;;;;;;5135729;27;20087;-79
2022/10/28 06:11:28;;;;;;;21.83;9.73;;;12.20;99.90;;;;;;5137136;27;20043;-77
2022/10/28 06:13:54;;;;;;;18.83;9.70;;;12.10;99.90;;;;;;5137382;27;20035;-77
2022/10/28 06:16:19;;;;;;;19.35;10.48;;;12.10;99.90;;;;;;5135947;27;20035;-77
2022/10/28 06:18:45;;;;;;;19.25;9.75;;;12.10;99.90;;;;;;5136704;27;20058;-77
2022/10/28 06:21:11;;;;;;;18.17;9.25;;;12.10;99.90;;;;;;5137230;27;20071;-77
2022/10/28 06:23:36;;;;;;;25.70;10.52;;;12.10;99.90;;;;;;5136888;27;20505;-77
2022/10/28 06:26:04;;;;;;;16.80;9.80;;;12.00;99.90;;;;;;5137179;27;20084;-79
2022/10/28 06:28:30;;;;;;;21.08;10.95;;;12.00;99.90;;;;;;5136638;27;20051;-78
2022/10/28 06:31:03;;;;;;;18.45;10.23;;;11.90;99.90;;;;;;5136932;27;20042;-82
2022/10/28 06:33:29;;;;;;;20.20;10.60;;;11.90;99.90;;;;;;5136991;27;20039;-79
2022/10/28 06:35:59;;;;;;;16.52;9.82;;;11.90;99.90;;;;;;5136797;27;20105;-81
2022/10/28 06:38:26;;;;;;;19.00;10.10;;;11.90;99.90;;;;;;5136634;27;20559;-79
2022/10/28 06:40:51;;;;;;;20.73;10.18;;;11.90;99.90;;;;;;5136731;27;20047;-74
2022/10/28 06:43:17;;;;;;;17.70;10.40;;;11.90;99.90;;;;;;5136761;27;20039;-77
2022/10/28 06:45:45;;;;;;;17.77;10.18;;;11.90;99.90;;;;;;5136570;27;20050;-78
2022/10/28 06:48:11;;;;;;;17.88;10.25;;;11.90;99.90;;;;;;5136583;27;20039;-78
2022/10/28 06:50:37;;;;;;;17.53;10.60;;;11.90;99.90;;;;;;5136663;27;20505;-78
2022/10/28 06:53:03;;;;;;;18.05;9.30;;;11.90;99.90;;;;;;5136345;27;20539;-78
2022/10/28 06:55:29;;;;;;;22.38;10.50;;;11.90;99.90;;;;;;5136521;27;20047;-78
2022/10/28 06:57:59;;;;;;;17.73;9.60;;;11.90;99.90;;;;;;5136520;27;20475;-78
2022/10/28 07:00:25;;;;;;;16.58;9.75;;;11.90;99.90;;;;;;5136015;27;20384;-76
2022/10/28 07:02:54;;;;;;;19.27;9.93;;;11.90;99.90;;;;;;5136557;27;20046;-75
2022/10/28 07:05:20;;;;;;;15.57;10.27;;;11.90;99.90;;;;;;5136529;27;20043;-76
2022/10/28 07:07:46;;;;;;;25.02;9.85;;;11.90;99.90;;;;;;5136336;27;20058;-74
2022/10/28 07:10:11;;;;;;;19.97;9.60;;;12.10;99.90;;;;;;5136117;27;20031;-73
2022/10/28 07:12:37;;;;;;;20.83;9.25;;;12.00;99.90;;;;;;5136662;27;20046;-75
2022/10/28 07:15:03;;;;;;;19.48;10.10;;;12.20;99.90;;;;;;5136053;27;20386;-74
2022/10/28 07:17:29;;;;;;;16.07;8.90;;;12.00;99.90;;;;;;5136096;27;20047;-73
2022/10/28 07:19:54;;;;;;;14.40;9.35;;;12.10;99.90;;;;;;5135896;27;20134;-74
2022/10/28 07:22:20;;;;;;;19.98;9.38;;;12.10;99.90;;;;;;5135929;27;20039;-74
2022/10/28 07:24:45;;;;;;;18.43;8.93;;;12.20;99.90;;;;;;5135856;27;20479;-77
2022/10/28 07:27:11;;;;;;;19.77;10.17;;;12.20;99.90;;;;;;5135643;27;20050;-78
2022/10/28 07:29:37;;;;;;;18.45;9.15;;;12.30;99.90;;;;;;5135407;27;20047;-79
2022/10/28 07:32:03;;;;;;;20.35;9.15;;;12.30;99.90;;;;;;5135749;27;20047;-79
2022/10/28 07:34:28;;;;;;;17.27;9.68;;;12.40;99.90;;;;;;5135406;27;20039;-79
2022/10/28 07:36:55;;;;;;;18.67;9.30;;;12.50;99.90;;;;;;5135902;27;20138;-78
2022/10/28 07:39:21;;;;;;;18.33;8.93;;;12.70;99.90;;;;;;5135694;27;20125;-79
2022/10/28 07:41:46;;;;;;;16.33;8.50;;;12.70;99.90;;;;;;5135597;27;20088;-79
2022/10/28 07:44:13;;;;;;;15.10;8.25;;;12.90;99.90;;;;;;5135278;27;20063;-77
2022/10/28 07:46:38;;;;;;;20.90;9.45;;;13.00;99.90;;;;;;5135405;27;20043;-79
2022/10/28 07:49:04;;;;;;;16.52;8.38;;;13.20;99.90;;;;;;5135560;27;20042;-78
2022/10/28 07:51:29;;;;;;;17.05;9.00;;;13.40;99.90;;;;;;5135114;27;20047;-81
2022/10/28 07:53:56;;;;;;;18.63;9.00;;;13.40;99.90;;;;;;5135306;27;20050;-81
2022/10/28 07:56:22;;;;;;;24.98;8.75;;;13.60;99.90;;;;;;5135573;27;20051;-79
2022/10/28 07:58:47;;;;;;;15.77;8.00;;;13.70;99.90;;;;;;5134607;27;20046;-78
2022/10/28 08:01:15;;;;;;;16.45;8.60;;;13.80;99.90;;;;;;5135262;27;20047;-81
2022/10/28 08:03:41;;;;;;;16.05;7.85;;;14.10;99.90;;;;;;5135062;27;20477;-80
2022/10/28 08:06:16;;;;;;;15.27;8.07;;;14.20;99.90;;;;;;5135212;27;20084;-75
2022/10/28 08:08:42;;;;;;;18.52;8.50;;;14.40;99.90;;;;;;5135234;27;20172;-79
2022/10/28 08:11:09;;;;;;;18.60;7.65;;;14.60;99.90;;;;;;5135375;27;20094;-79
2022/10/28 08:13:34;;;;;;;13.80;7.00;;;14.70;99.90;;;;;;5134607;27;20047;-78
2022/10/28 08:16:00;;;;;;;12.60;7.22;;;15.00;99.90;;;;;;5135034;27;20043;-80
2022/10/28 08:18:26;;;;;;;14.30;6.43;;;15.10;99.90;;;;;;5134985;27;20121;-79
2022/10/28 08:20:51;;;;;;;21.13;7.27;;;15.30;99.90;;;;;;5134864;27;20428;-79
2022/10/28 08:23:17;;;;;;;17.03;7.33;;;15.40;99.90;;;;;;5134935;27;20047;-82
2022/10/28 08:25:50;;;;;;;15.15;6.43;;;15.50;99.90;;;;;;5134744;27;20103;-79
2022/10/28 08:28:16;;;;;;;17.67;6.85;;;15.70;99.90;;;;;;5134850;27;20107;-80
2022/10/28 08:30:41;;;;;;;13.43;6.10;;;15.90;99.90;;;;;;5134439;27;20046;-76
2022/10/28 08:33:07;;;;;;;14.70;6.13;;;16.10;99.90;;;;;;5134660;27;20043;-82
2022/10/28 08:35:34;;;;;;;17.13;6.43;;;16.20;99.90;;;;;;5133511;27;20502;-78
2022/10/28 08:38:00;;;;;;;18.95;6.05;;;16.30;99.90;;;;;;5134474;27;20491;-81
2022/10/28 08:40:56;;;;;;;12.90;6.07;;;16.40;99.90;;;;;;5133945;27;20122;-78
2022/10/28 08:43:47;;;;;;;12.93;5.95;;;16.50;99.90;;;;;;5123430;27;20050;-79
2022/10/28 08:46:33;;;;;;;11.32;5.70;;;16.60;99.90;;;;;;5134429;28;20043;-79
2022/10/28 08:49:01;;;;;;;12.65;5.72;;;16.70;99.90;;;;;;5134267;28;20053;-80
2022/10/28 08:52:08;;;;;;;18.17;5.95;;;16.80;99.90;;;;;;5134734;27;20454;-81
2022/10/28 08:54:51;;;;;;;16.45;5.88;;;16.80;99.90;;;;;;5105868;27;20511;-79
2022/10/28 08:57:23;;;;;;;13.27;5.85;;;16.90;99.90;;;;;;5134691;27;20054;-79
2022/10/28 08:59:52;;;;;;;14.45;6.18;;;17.00;99.90;;;;;;5133909;28;20169;-80
2022/10/28 09:02:30;;;;;;;19.92;6.28;;;17.10;99.90;;;;;;5133512;27;20042;-78
2022/10/28 09:05:22;;;;;;;15.98;5.97;;;17.30;99.90;;;;;;5135098;27;20086;-79
2022/10/28 09:07:48;;;;;;;17.75;5.82;;;17.40;99.90;;;;;;5134649;27;20035;-79
2022/10/28 09:10:16;;;;;;;14.73;5.97;;;17.50;99.90;;;;;;5134298;28;20455;-78
2022/10/28 09:13:10;;;;;;;11.00;5.35;;;17.70;99.90;;;;;;5134108;28;20164;-80
2022/10/28 09:15:53;;;;;;;20.55;5.38;;;17.90;99.90;;;;;;5134466;27;20050;-78
2022/10/28 09:18:39;;;;;;;14.18;5.50;;;18.00;99.90;;;;;;5134525;27;20122;-78
2022/10/28 09:21:14;;;;;;;11.90;4.60;;;18.20;99.90;;;;;;5134430;27;20491;-78
2022/10/28 09:23:53;;;;;;;16.27;5.63;;;18.30;99.90;;;;;;5134451;27;20035;-78
2022/10/28 09:26:40;;;;;;;12.43;5.22;;;18.40;99.90;;;;;;5134305;27;20043;-81
2022/10/28 09:29:27;;;;;;;12.03;5.43;;;18.60;99.90;;;;;;5134027;28;20402;-81
2022/10/28 09:32:13;;;;;;;18.10;5.60;;;18.60;99.90;;;;;;5134328;27;20079;-80
2022/10/28 09:34:51;;;;;;;18.52;5.57;;;18.60;99.90;;;;;;5134434;27;20050;-81
2022/10/28 09:37:18;;;;;;;14.15;5.30;;;18.60;99.90;;;;;;5134250;27;20493;-81
2022/10/28 09:39:51;;;;;;;11.50;5.25;;;18.70;99.90;;;;;;5134269;27;20043;-81
2022/10/28 09:42:31;;;;;;;22.48;5.53;;;18.60;99.90;;;;;;5134361;27;20046;-80
2022/10/28 09:45:16;;;;;;;16.42;5.90;;;18.70;99.90;;;;;;5116920;28;20047;-81
2022/10/28 09:47:53;;;;;;;17.42;5.45;;;18.60;99.90;;;;;;5113661;28;20048;-76
2022/10/28 09:50:23;;;;;;;16.00;5.07;;;18.60;99.90;;;;;;5123758;27;20043;-73
2022/10/28 09:53:00;;;;;;;12.55;5.57;;;18.60;99.90;;;;;;5137482;27;20123;-77
2022/10/28 09:55:28;;;;;;;14.13;5.72;;;18.60;99.90;;;;;;5137716;27;20043;-84
2022/10/28 09:57:56;;;;;;;15.77;5.63;;;18.60;99.90;;;;;;5137601;27;20046;-78
2022/10/28 10:00:24;;;;;;;15.88;5.40;;;18.60;99.90;;;;;;5133887;27;20043;-80
2022/10/28 10:02:56;;;;;;;11.65;5.57;;;18.60;99.90;;;;;;5123285;27;20039;-81
2022/10/28 10:05:23;;;;;;;14.30;5.75;;;18.70;99.90;;;;;;5116815;28;20058;-81
2022/10/28 10:08:00;;;;;;;18.38;5.45;;;18.70;99.90;;;;;;5116207;28;20509;-82
2022/10/28 10:10:31;;;;;;;14.90;5.53;;;18.70;99.90;;;;;;5116106;28;20376;-80
2022/10/28 10:13:01;;;;;;;18.90;6.07;;;18.70;99.90;;;;;;5117635;28;20148;-81
2022/10/28 10:15:40;;;;;;;16.55;5.57;;;18.70;99.90;;;;;;5116939;28;20118;-81
2022/10/28 10:18:10;;;;;;;14.88;5.60;;;18.70;99.90;;;;;;5117209;28;20055;-81
2022/10/28 10:20:54;;;;;;;18.85;6.13;;;18.70;99.90;;;;;;5117017;28;20043;-81
2022/10/28 10:23:28;;;;;;;20.02;6.28;;;18.70;99.90;;;;;;5117046;28;20040;-81
2022/10/28 10:26:07;;;;;;;12.25;5.53;;;18.70;99.90;;;;;;5116953;28;20134;-80
2022/10/28 10:28:37;;;;;;;16.05;5.35;;;18.80;99.90;;;;;;5117401;28;20101;-80
2022/10/28 10:31:06;;;;;;;17.58;6.00;;;18.70;99.90;;;;;;5116867;28;20044;-81
2022/10/28 10:33:38;;;;;;;13.55;5.07;;;18.80;99.90;;;;;;5116691;28;20051;-81
2022/10/28 10:36:09;;;;;;;13.73;5.43;;;18.90;99.90;;;;;;5117188;28;20058;-81
2022/10/28 10:38:36;;;;;;;13.65;5.95;;;18.90;99.90;;;;;;5117195;28;20039;-80
2022/10/28 10:41:02;;;;;;;13.27;5.20;;;19.00;99.90;;;;;;5116827;28;20043;-81
2022/10/28 10:43:33;;;;;;;18.33;4.97;;;19.10;99.90;;;;;;5116518;28;20044;-82
2022/10/28 10:45:59;;;;;;;17.23;5.65;;;19.10;99.90;;;;;;5116309;28;20039;-81
2022/10/28 10:48:25;;;;;;;14.48;5.43;;;19.30;99.90;;;;;;5116305;28;20047;-81
2022/10/28 10:50:51;;;;;;;12.50;5.83;;;19.40;99.90;;;;;;5116480;28;20035;-81
2022/10/28 10:53:23;;;;;;;16.52;4.90;;;19.50;99.90;;;;;;5116182;28;20840;-81
2022/10/28 10:56:01;;;;;;;12.60;5.20;;;19.50;99.90;;;;;;5116358;28;20053;-81
2022/10/28 10:58:30;;;;;;;16.23;5.35;;;19.40;99.90;;;;;;5116462;28;20126;-81
2022/10/28 11:00:59;;;;;;;19.90;5.03;;;19.50;99.90;;;;;;5116208;28;20047;-81
2022/10/28 11:03:37;;;;;;;13.43;5.10;;;19.60;99.90;;;;;;5115706;28;20043;-81
2022/10/28 11:06:06;;;;;;;18.75;5.20;;;19.60;99.90;;;;;;5116583;28;20043;-81
2022/10/28 11:08:35;;;;;;;15.52;5.53;;;19.60;99.90;;;;;;5116243;28;20035;-82
2022/10/28 11:11:21;;;;;;;20.27;5.78;;;19.60;99.90;;;;;;5116162;28;20046;-81
2022/10/28 11:13:48;;;;;;;15.80;4.70;;;19.60;99.90;;;;;;5116536;28;20383;-81
2022/10/28 11:16:31;;;;;;;14.30;5.18;;;19.60;99.90;;;;;;5116108;28;20048;-81
2022/10/28 11:18:57;;;;;;;14.40;5.35;;;19.60;99.90;;;;;;5116271;28;20167;-81
2022/10/28 11:21:55;;;;;;;9.93;4.50;;;19.70;99.90;;;;;;5116115;28;20064;-81
2022/10/28 11:24:59;;;;;;;16.55;5.25;;;19.70;99.90;;;;;;5116677;28;20433;-80
2022/10/28 11:27:44;;;;;;;13.23;5.05;;;19.80;99.90;;;;;;5084055;28;20086;-81
2022/10/28 11:30:15;;;;;;;15.85;4.93;;;19.90;99.90;;;;;;5115372;28;20040;-81
2022/10/28 11:32:52;;;;;;;10.93;4.53;;;20.00;99.90;;;;;;5115598;28;20128;-81
2022/10/28 11:35:56;;;;;;;12.43;4.72;;;20.20;99.90;;;;;;5115898;28;20396;-81
2022/10/28 11:38:35;;;;;;;12.30;4.97;;;20.30;99.90;;;;;;5104241;28;20502;-81
2022/10/28 11:41:34;;;;;;;17.95;5.43;;;20.40;99.90;;;;;;5115877;28;20035;-80
2022/10/28 11:44:07;;;;;;;14.25;5.20;;;20.50;99.90;;;;;;5115676;28;20112;-80
2022/10/28 11:46:54;;;;;;;14.57;5.07;;;20.50;99.90;;;;;;5115285;28;20057;-80
2022/10/28 11:49:26;;;;;;;12.68;5.20;;;20.50;99.90;;;;;;5115256;28;20100;-80
2022/10/28 11:51:56;;;;;;;19.00;5.72;;;20.50;99.90;;;;;;5114973;28;20044;-81
2022/10/28 11:54:55;;;;;;;16.92;5.47;;;20.50;99.90;;;;;;5115096;28;20135;-80
2022/10/28 11:57:44;;;;;;;17.00;5.57;;;20.50;99.90;;;;;;5114766;28;20372;-81
2022/10/28 12:00:44;;;;;;;14.35;5.55;;;20.60;99.90;;;;;;5114859;28;20492;-81
2022/10/28 12:03:38;;;;;;;12.55;5.03;;;20.70;99.90;;;;;;5114935;28;20048;-81
2022/10/28 12:06:31;;;;;;;13.82;5.45;;;20.80;99.90;;;;;;5113325;28;20066;-81
2022/10/28 12:09:14;;;;;;;12.18;5.80;;;20.80;99.90;;;;;;5115330;28;20035;-81
2022/10/28 12:12:06;;;;;;;15.57;5.20;;;20.90;99.90;;;;;;5115038;28;20040;-81
2022/10/28 12:14:51;;;;;;;15.20;5.38;;;20.80;99.90;;;;;;5082050;28;20399;-80
2022/10/28 12:17:29;;;;;;;16.35;5.13;;;20.90;99.90;;;;;;5082652;28;20052;-80
2022/10/28 12:20:01;;;;;;;25.83;5.60;;;20.90;99.90;;;;;;5114819;28;20079;-81
2022/10/28 12:22:39;;;;;;;15.60;4.75;;;20.80;99.90;;;;;;5114542;28;20096;-81
2022/10/28 12:25:12;;;;;;;18.90;5.40;;;20.80;99.90;;;;;;5114787;28;20047;-81
2022/10/28 12:27:42;;;;;;;14.82;5.10;;;20.80;99.90;;;;;;5114565;28;20059;-81
2022/10/28 12:30:27;;;;;;;24.38;5.68;;;20.80;99.90;;;;;;5114528;28;20396;-81
2022/10/28 12:33:22;;;;;;;18.52;5.30;;;20.90;99.90;;;;;;5114544;28;20051;-80
2022/10/28 12:36:04;;;;;;;16.73;5.35;;;20.90;99.90;;;;;;5105984;28;20055;-82
2022/10/28 12:38:41;;;;;;;13.07;4.80;;;20.90;99.90;;;;;;5114601;28;20047;-81
2022/10/28 12:41:16;;;;;;;11.43;4.85;;;20.90;99.90;;;;;;5114668;28;20040;-81
2022/10/28 12:43:46;;;;;;;17.08;4.55;;;20.90;99.90;;;;;;5114807;28;20127;-82
2022/10/28 12:46:37;;;;;;;12.20;4.55;;;20.90;99.90;;;;;;5114443;28;20039;-81
2022/10/28 12:49:15;;;;;;;11.27;4.80;;;21.00;99.90;;;;;;5114284;28;20514;-81
2022/10/28 12:51:41;;;;;;;13.13;5.03;;;20.90;99.90;;;;;;5114264;28;20040;-82
2022/10/28 12:54:13;;;;;;;14.27;5.13;;;21.00;99.90;;;;;;5114376;28;20136;-81
2022/10/28 12:56:47;;;;;;;15.60;5.60;;;20.90;99.90;;;;;;5114285;28;20127;-81